Terminal Aerodrome Forecast
Issued by NWS Charleston, SC

Current Version | Previous Version | Text Only | Print | Product List | Glossary Off
Versions: 1 2 3 4 5 6 7 8 9 10 11 12 13 14 15 16 17 18 19 20 21 22 23 24 25 26 27 28 29 30 31 32 33 34 35

437
FTUS42 KCHS 251133
TAFCHS
TAF
KCHS 251133Z 2512/2612 00000KT 6SM BR SCT002
     FM251330 06005KT P6SM FEW035 SCT250
     FM251800 09007KT P6SM SCT040
     FM260000 05006KT P6SM SCT015=

USA.gov is the U.S. government's official web portal to all federal, state and local government web resources and services.